Time,TemperatureF,DewpointF,PressureIn,WindDirection,WindDirectionDegrees,WindSpeedMPH,WindSpeedGustMPH,Humidity,HourlyPrecipIn,Conditions,Clouds,dailyrainin,SoftwareType,DateUTC
2013-10-09 00:12:00,43.6,42.0,30.26,West,263,1.0,4.0,92,0.00,,,0.01,weatherlink.com 1.10,2013-10-09 04:12:00,
2013-10-09 00:27:00,43.4,41.0,30.26,West,263,1.0,3.0,92,0.00,,,0.01,weatherlink.com 1.10,2013-10-09 04:27:00,
2013-10-09 00:42:00,43.4,42.0,30.26,West,277,1.0,4.0,93,0.00,,,0.01,weatherlink.com 1.10,2013-10-09 04:42:00,
2013-10-09 00:57:00,42.9,41.0,30.25,West,277,2.0,3.0,92,0.00,,,0.01,weatherlink.com 1.10,2013-10-09 04:57:00,
2013-10-09 01:12:00,42.6,41.0,30.25,West,259,2.0,5.0,92,0.00,,,0.01,weatherlink.com 1.10,2013-10-09 05:12:00,
2013-10-09 01:27:00,42.6,41.0,30.25,West,278,3.0,5.0,92,0.00,,,0.01,weatherlink.com 1.10,2013-10-09 05:27:00,
2013-10-09 01:42:00,42.7,41.0,30.25,West,277,0.0,6.0,92,0.00,,,0.01,weatherlink.com 1.10,2013-10-09 05:42:00,
2013-10-09 01:59:00,42.4,40.0,30.24,West,272,2.0,4.0,92,0.00,,,0.01,weatherlink.com 1.10,2013-10-09 05:59:00,
2013-10-09 02:12:00,42.3,40.0,30.24,West,263,1.0,4.0,92,0.00,,,0.01,weatherlink.com 1.10,2013-10-09 06:12:00,
2013-10-09 02:27:00,42.0,40.0,30.24,West,268,3.0,5.0,92,0.00,,,0.01,weatherlink.com 1.10,2013-10-09 06:27:00,
2013-10-09 02:42:00,42.0,40.0,30.25,West,269,1.0,4.0,92,0.00,,,0.01,weatherlink.com 1.10,2013-10-09 06:42:00,
2013-10-09 02:57:00,41.5,39.0,30.24,WSW,240,3.0,4.0,92,0.00,,,0.01,weatherlink.com 1.10,2013-10-09 06:57:00,
2013-10-09 03:12:00,41.2,39.0,30.24,West,271,2.0,3.0,92,0.00,,,0.01,weatherlink.com 1.10,2013-10-09 07:12:00,
2013-10-09 03:27:00,40.8,39.0,30.24,West,271,0.0,2.0,92,0.00,,,0.01,weatherlink.com 1.10,2013-10-09 07:27:00,
2013-10-09 03:42:00,40.3,38.0,30.24,West,271,0.0,2.0,92,0.00,,,0.01,weatherlink.com 1.10,2013-10-09 07:42:00,
2013-10-09 03:57:00,39.8,37.0,30.24,West,271,0.0,0.0,91,0.00,,,0.01,weatherlink.com 1.10,2013-10-09 07:57:00,
2013-10-09 04:12:00,39.3,37.0,30.24,West,271,0.0,0.0,92,0.00,,,0.01,weatherlink.com 1.10,2013-10-09 08:12:00,
2013-10-09 04:27:00,38.9,37.0,30.24,West,271,0.0,0.0,92,0.00,,,0.00,weatherlink.com 1.10,2013-10-09 08:27:00,
2013-10-09 04:42:00,38.6,37.0,30.24,West,271,0.0,0.0,92,0.00,,,0.00,weatherlink.com 1.10,2013-10-09 08:42:00,
2013-10-09 04:57:00,38.4,37.0,30.24,West,271,0.0,1.0,93,0.00,,,0.00,weatherlink.com 1.10,2013-10-09 08:57:00,
2013-10-09 05:12:00,38.3,37.0,30.25,West,271,0.0,1.0,93,0.00,,,0.00,weatherlink.com 1.10,2013-10-09 09:12:00,
2013-10-09 05:27:00,38.2,36.0,30.25,West,271,0.0,0.0,93,0.00,,,0.00,weatherlink.com 1.10,2013-10-09 09:27:00,
2013-10-09 05:44:00,37.9,36.0,30.25,West,271,0.0,0.0,93,0.00,,,0.00,weatherlink.com 1.10,2013-10-09 09:44:00,
2013-10-09 05:57:00,37.5,35.0,30.25,West,271,0.0,0.0,92,0.00,,,0.00,weatherlink.com 1.10,2013-10-09 09:57:00,
2013-10-09 06:12:00,37.0,35.0,30.25,West,271,0.0,0.0,92,0.00,,,0.00,weatherlink.com 1.10,2013-10-09 10:12:00,
2013-10-09 06:27:00,36.7,35.0,30.25,West,271,0.0,0.0,93,0.00,,,0.00,weatherlink.com 1.10,2013-10-09 10:27:00,
2013-10-09 06:42:00,36.4,34.0,30.25,West,271,0.0,0.0,92,0.00,,,0.00,weatherlink.com 1.10,2013-10-09 10:42:00,
2013-10-09 06:57:00,36.0,34.0,30.26,West,271,0.0,0.0,93,0.00,,,0.00,weatherlink.com 1.10,2013-10-09 10:57:00,
2013-10-09 07:12:00,35.8,34.0,30.26,West,271,0.0,0.0,93,0.00,,,0.00,weatherlink.com 1.10,2013-10-09 11:12:00,
2013-10-09 07:27:00,35.5,34.0,30.26,West,271,0.0,0.0,93,0.00,,,0.00,weatherlink.com 1.10,2013-10-09 11:27:00,
2013-10-09 07:42:00,35.4,34.0,30.27,West,271,0.0,0.0,93,0.00,,,0.00,weatherlink.com 1.10,2013-10-09 11:42:00,
2013-10-09 07:57:00,35.3,34.0,30.27,West,271,0.0,0.0,93,0.00,,,0.00,weatherlink.com 1.10,2013-10-09 11:57:00,
2013-10-09 08:12:00,35.5,34.0,30.28,West,271,0.0,0.0,94,0.00,,,0.00,weatherlink.com 1.10,2013-10-09 12:12:00,
2013-10-09 08:27:00,37.9,37.0,30.28,West,271,0.0,0.0,95,0.00,,,0.00,weatherlink.com 1.10,2013-10-09 12:27:00,
2013-10-09 08:42:00,39.3,38.0,30.29,West,271,1.0,2.0,95,0.00,,,0.00,weatherlink.com 1.10,2013-10-09 12:42:00,
2013-10-09 08:57:00,40.3,38.0,30.29,West,271,0.0,2.0,92,0.00,,,0.00,weatherlink.com 1.10,2013-10-09 12:57:00,
2013-10-09 09:12:00,41.3,39.0,30.29,West,271,0.0,2.0,91,0.00,,,0.00,weatherlink.com 1.10,2013-10-09 13:12:00,
2013-10-09 09:28:00,42.0,40.0,30.29,West,271,0.0,1.0,92,0.00,,,0.00,weatherlink.com 1.10,2013-10-09 13:28:00,
2013-10-09 09:42:00,44.5,42.0,30.29,West,259,0.0,3.0,92,0.00,,,0.00,weatherlink.com 1.10,2013-10-09 13:42:00,
2013-10-09 09:57:00,46.8,44.0,30.29,West,259,2.0,3.0,88,0.00,,,0.00,weatherlink.com 1.10,2013-10-09 13:57:00,
2013-10-09 10:13:00,48.8,45.0,30.28,West,259,0.0,2.0,86,0.00,,,0.00,weatherlink.com 1.10,2013-10-09 14:13:00,
2013-10-09 10:28:00,51.3,44.0,30.28,NW,304,1.0,4.0,75,0.00,,,0.00,weatherlink.com 1.10,2013-10-09 14:28:00,
2013-10-09 10:43:00,53.4,41.0,30.28,NE,49,0.0,3.0,63,0.00,,,0.00,weatherlink.com 1.10,2013-10-09 14:43:00,
2013-10-09 10:58:00,55.0,42.0,30.28,East,82,0.0,2.0,62,0.00,,,0.00,weatherlink.com 1.10,2013-10-09 14:58:00,
2013-10-09 11:13:00,57.4,42.0,30.28,East,87,0.0,3.0,57,0.00,,,0.00,weatherlink.com 1.10,2013-10-09 15:13:00,
2013-10-09 11:28:00,58.7,42.0,30.27,ENE,59,0.0,3.0,54,0.00,,,0.00,weatherlink.com 1.10,2013-10-09 15:28:00,
2013-10-09 11:43:00,58.8,41.0,30.27,WNW,301,0.0,3.0,52,0.00,,,0.00,weatherlink.com 1.10,2013-10-09 15:43:00,
2013-10-09 11:58:00,59.5,41.0,30.26,WSW,248,0.0,4.0,51,0.00,,,0.00,weatherlink.com 1.10,2013-10-09 15:58:00,
2013-10-09 12:13:00,61.2,40.0,30.26,WSW,258,0.0,3.0,46,0.00,,,0.00,weatherlink.com 1.10,2013-10-09 16:13:00,
2013-10-09 12:28:00,61.7,42.0,30.25,SW,223,0.0,3.0,49,0.00,,,0.00,weatherlink.com 1.10,2013-10-09 16:28:00,
2013-10-09 12:43:00,62.9,43.0,30.25,WSW,256,2.0,4.0,48,0.00,,,0.00,weatherlink.com 1.10,2013-10-09 16:43:00,
2013-10-09 12:58:00,62.9,42.0,30.24,SW,224,1.0,8.0,46,0.00,,,0.00,weatherlink.com 1.10,2013-10-09 16:58:00,
2013-10-09 13:13:00,64.4,42.0,30.24,SW,233,0.0,4.0,45,0.00,,,0.00,weatherlink.com 1.10,2013-10-09 17:13:00,
2013-10-09 13:28:00,63.8,43.0,30.23,WNW,288,1.0,5.0,47,0.00,,,0.00,weatherlink.com 1.10,2013-10-09 17:28:00,
2013-10-09 13:43:00,65.1,45.0,30.21,WSW,247,1.0,4.0,48,0.00,,,0.00,weatherlink.com 1.10,2013-10-09 17:43:00,
2013-10-09 13:58:00,66.7,46.0,30.21,ENE,62,0.0,4.0,47,0.00,,,0.00,weatherlink.com 1.10,2013-10-09 17:58:00,
2013-10-09 14:28:00,66.9,48.0,30.19,NE,49,4.0,5.0,50,0.00,,,0.00,weatherlink.com 1.10,2013-10-09 18:28:00,
2013-10-09 14:43:00,66.3,46.0,30.18,East,81,0.0,5.0,49,0.00,,,0.00,weatherlink.com 1.10,2013-10-09 18:43:00,
2013-10-09 14:58:00,65.4,46.0,30.18,WSW,239,2.0,5.0,49,0.00,,,0.00,weatherlink.com 1.10,2013-10-09 18:58:00,
2013-10-09 15:13:00,65.1,47.0,30.17,East,94,0.0,2.0,52,0.00,,,0.00,weatherlink.com 1.10,2013-10-09 19:13:00,
2013-10-09 15:29:00,65.4,48.0,30.17,WSW,254,0.0,4.0,53,0.00,,,0.00,weatherlink.com 1.10,2013-10-09 19:29:00,
2013-10-09 15:44:00,66.8,48.0,30.17,ENE,76,0.0,3.0,51,0.00,,,0.00,weatherlink.com 1.10,2013-10-09 19:44:00,
2013-10-09 15:59:00,68.4,48.0,30.16,ENE,71,1.0,2.0,49,0.00,,,0.00,weatherlink.com 1.10,2013-10-09 19:59:00,
2013-10-09 16:14:00,69.6,48.0,30.16,ENE,60,1.0,4.0,47,0.00,,,0.00,weatherlink.com 1.10,2013-10-09 20:14:00,
2013-10-09 16:29:00,71.2,49.0,30.16,ENE,57,1.0,2.0,46,0.00,,,0.00,weatherlink.com 1.10,2013-10-09 20:29:00,
2013-10-09 16:44:00,72.8,52.0,30.16,ENE,57,0.0,2.0,49,0.00,,,0.00,weatherlink.com 1.10,2013-10-09 20:44:00,
2013-10-09 16:59:00,73.4,51.0,30.16,ENE,57,1.0,3.0,46,0.00,,,0.00,weatherlink.com 1.10,2013-10-09 20:59:00,
2013-10-09 17:14:00,73.0,53.0,30.15,ENE,57,0.0,2.0,49,0.00,,,0.00,weatherlink.com 1.10,2013-10-09 21:14:00,
2013-10-09 17:29:00,72.1,51.0,30.15,NNE,27,3.0,3.0,47,0.00,,,0.00,weatherlink.com 1.10,2013-10-09 21:29:00,
2013-10-09 17:44:00,69.1,50.0,30.15,ENE,67,2.0,3.0,50,0.00,,,0.00,weatherlink.com 1.10,2013-10-09 21:44:00,
2013-10-09 17:59:00,65.8,50.0,30.15,NE,44,0.0,1.0,58,0.00,,,0.00,weatherlink.com 1.10,2013-10-09 21:59:00,
2013-10-09 18:14:00,62.7,50.0,30.16,NE,44,0.0,2.0,63,0.00,,,0.00,weatherlink.com 1.10,2013-10-09 22:14:00,
2013-10-09 18:29:00,60.0,49.0,30.16,NE,44,0.0,1.0,68,0.00,,,0.00,weatherlink.com 1.10,2013-10-09 22:29:00,
2013-10-09 18:44:00,57.8,50.0,30.16,NE,44,0.0,1.0,74,0.00,,,0.00,weatherlink.com 1.10,2013-10-09 22:44:00,
2013-10-09 18:59:00,56.3,50.0,30.17,NE,44,0.0,1.0,78,0.00,,,0.00,weatherlink.com 1.10,2013-10-09 22:59:00,
2013-10-09 19:14:00,55.0,49.0,30.17,NE,44,0.0,1.0,80,0.00,,,0.00,weatherlink.com 1.10,2013-10-09 23:14:00,
2013-10-09 19:29:00,53.8,48.0,30.18,NE,44,0.0,1.0,82,0.00,,,0.00,weatherlink.com 1.10,2013-10-09 23:29:00,
2013-10-09 19:44:00,52.6,48.0,30.18,NE,44,0.0,1.0,85,0.00,,,0.00,weatherlink.com 1.10,2013-10-09 23:44:00,
2013-10-09 19:59:00,51.9,48.0,30.19,NE,44,2.0,2.0,86,0.00,,,0.00,weatherlink.com 1.10,2013-10-09 23:59:00,
2013-10-09 20:14:00,51.1,47.0,30.19,NE,44,0.0,2.0,86,0.00,,,0.00,weatherlink.com 1.10,2013-10-10 00:14:00,
2013-10-09 20:31:00,50.1,47.0,30.19,NE,44,0.0,1.0,88,0.00,,,0.00,weatherlink.com 1.10,2013-10-10 00:31:00,
2013-10-09 20:44:00,49.5,46.0,30.19,NE,44,0.0,0.0,88,0.00,,,0.00,weatherlink.com 1.10,2013-10-10 00:44:00,
2013-10-09 20:59:00,48.8,45.0,30.19,NE,44,0.0,0.0,88,0.00,,,0.00,weatherlink.com 1.10,2013-10-10 00:59:00,
2013-10-09 21:14:00,48.2,45.0,30.19,NE,44,0.0,1.0,89,0.00,,,0.00,weatherlink.com 1.10,2013-10-10 01:14:00,
2013-10-09 21:29:00,47.6,45.0,30.20,NE,44,0.0,1.0,90,0.00,,,0.00,weatherlink.com 1.10,2013-10-10 01:29:00,
2013-10-09 21:44:00,47.2,44.0,30.20,NE,44,0.0,0.0,89,0.00,,,0.00,weatherlink.com 1.10,2013-10-10 01:44:00,
2013-10-09 21:59:00,46.8,44.0,30.20,NE,44,0.0,0.0,90,0.00,,,0.00,weatherlink.com 1.10,2013-10-10 01:59:00,
2013-10-09 22:14:00,46.1,43.0,30.20,NE,44,0.0,0.0,90,0.00,,,0.00,weatherlink.com 1.10,2013-10-10 02:14:00,
2013-10-09 22:29:00,45.8,43.0,30.20,NE,44,0.0,1.0,90,0.00,,,0.00,weatherlink.com 1.10,2013-10-10 02:29:00,
2013-10-09 22:44:00,45.4,43.0,30.20,NE,44,0.0,0.0,90,0.00,,,0.00,weatherlink.com 1.10,2013-10-10 02:44:00,
2013-10-09 22:59:00,45.0,43.0,30.20,NE,44,0.0,0.0,91,0.00,,,0.00,weatherlink.com 1.10,2013-10-10 02:59:00,
2013-10-09 23:14:00,44.6,42.0,30.20,NE,44,0.0,0.0,90,0.00,,,0.00,weatherlink.com 1.10,2013-10-10 03:14:00,
2013-10-09 23:29:00,44.1,42.0,30.20,NE,44,0.0,0.0,91,0.00,,,0.00,weatherlink.com 1.10,2013-10-10 03:29:00,
2013-10-09 23:44:00,43.6,41.0,30.20,NE,44,0.0,0.0,91,0.00,,,0.00,weatherlink.com 1.10,2013-10-10 03:44:00,
2013-10-09 23:59:00,43.3,41.0,30.19,NE,44,0.0,0.0,91,0.00,,,0.00,weatherlink.com 1.10,2013-10-10 03:59:00,